Time;durP1;ratioP1;P1;durP2;ratioP2;P2;SDS_P1;SDS_P2;PMS_P1;PMS_P2;Temp;Humidity;BMP_temperature;BMP_pressure;BME280_temperature;BME280_humidity;BME280_pressure;Samples;Min_cycle;Max_cycle;Signal;HPM_P1;HPM_P2
2023/04/14 00:00:12;;;;;;;6.13;4.85;;;6.10;99.90;;;;;;5117126;27;20028;-46
2023/04/14 00:02:38;;;;;;;11.07;5.60;;;6.00;99.90;;;;;;5108596;28;20042;-45
2023/04/14 00:05:04;;;;;;;14.98;6.05;;;5.90;99.90;;;;;;5108676;28;20023;-45
2023/04/14 00:07:29;;;;;;;8.88;5.88;;;5.90;99.90;;;;;;5116792;27;20114;-45
2023/04/14 00:09:55;;;;;;;7.10;4.93;;;5.90;99.90;;;;;;5115670;27;20247;-45
2023/04/14 00:12:20;;;;;;;10.52;6.55;;;5.90;99.90;;;;;;5119833;27;20023;-47
2023/04/14 00:14:48;;;;;;;6.63;4.85;;;5.90;99.90;;;;;;5116623;27;20130;-45
2023/04/14 00:17:13;;;;;;;9.18;5.70;;;5.80;99.90;;;;;;5120216;27;20097;-45
2023/04/14 00:19:39;;;;;;;7.78;5.82;;;5.80;99.90;;;;;;5111478;27;20058;-45
2023/04/14 00:22:04;;;;;;;11.70;5.57;;;5.80;99.90;;;;;;5119956;27;20103;-45
2023/04/14 00:24:30;;;;;;;8.00;5.70;;;5.70;99.90;;;;;;5110203;27;20500;-46
2023/04/14 00:26:55;;;;;;;13.05;6.18;;;5.70;99.90;;;;;;5107906;28;20028;-45
2023/04/14 00:29:21;;;;;;;11.77;6.03;;;5.70;99.90;;;;;;5107592;28;20028;-45
2023/04/14 00:31:47;;;;;;;9.70;6.57;;;5.70;99.90;;;;;;5111938;27;20023;-45
2023/04/14 00:34:12;;;;;;;9.10;5.72;;;5.70;99.90;;;;;;5073439;28;20031;-45
2023/04/14 00:36:38;;;;;;;8.27;6.43;;;5.70;99.90;;;;;;5111083;27;20018;-45
2023/04/14 00:39:04;;;;;;;9.90;6.15;;;5.60;99.90;;;;;;5113680;27;20477;-46
2023/04/14 00:41:33;;;;;;;8.45;5.78;;;5.60;99.90;;;;;;5116764;27;20435;-45
2023/04/14 00:44:00;;;;;;;8.13;5.55;;;5.50;99.90;;;;;;5109811;27;20476;-46
2023/04/14 00:46:26;;;;;;;9.30;5.88;;;5.50;99.90;;;;;;5128418;27;20027;-45
2023/04/14 00:48:52;;;;;;;9.90;6.40;;;5.50;99.90;;;;;;5115289;27;20031;-45
2023/04/14 00:51:18;;;;;;;6.85;5.60;;;5.40;99.90;;;;;;5107914;28;20023;-45
2023/04/14 00:53:44;;;;;;;9.75;6.10;;;5.40;99.90;;;;;;5117175;27;20022;-45
2023/04/14 00:56:09;;;;;;;7.18;5.82;;;5.30;99.90;;;;;;5107880;28;20515;-45
2023/04/14 00:58:35;;;;;;;8.40;5.50;;;5.30;99.90;;;;;;5107691;28;20016;-45
2023/04/14 01:01:01;;;;;;;5.47;4.90;;;5.20;99.90;;;;;;5107529;28;20019;-45
2023/04/14 01:03:27;;;;;;;6.78;5.70;;;5.20;99.90;;;;;;5107181;28;20053;-45
2023/04/14 01:05:52;;;;;;;8.13;5.63;;;5.20;99.90;;;;;;5107059;28;20023;-45
2023/04/14 01:08:19;;;;;;;9.98;5.53;;;5.20;99.90;;;;;;5106726;28;20028;-45
2023/04/14 01:11:15;;;;;;;8.25;6.03;;;5.20;99.90;;;;;;5088245;28;20023;-44
2023/04/14 01:14:10;;;;;;;8.25;6.25;;;5.10;99.90;;;;;;5119378;28;20047;-44
2023/04/14 01:16:39;;;;;;;13.20;6.47;;;5.10;99.90;;;;;;5076586;28;20061;-44
2023/04/14 01:19:24;;;;;;;9.50;5.90;;;5.10;99.90;;;;;;5106633;28;20034;-45
2023/04/14 01:21:53;;;;;;;9.02;5.70;;;5.00;99.90;;;;;;5106190;28;20024;-45
2023/04/14 01:24:29;;;;;;;10.15;6.32;;;5.00;99.90;;;;;;5106708;28;20496;-45
2023/04/14 01:27:05;;;;;;;8.13;6.20;;;5.00;99.90;;;;;;5106653;28;20020;-45
2023/04/14 01:30:05;;;;;;;8.27;5.43;;;5.00;99.90;;;;;;5107830;28;20144;-45
2023/04/14 01:32:35;;;;;;;7.82;5.70;;;5.00;99.90;;;;;;5108478;28;20038;-45
2023/04/14 01:35:11;;;;;;;10.30;6.13;;;5.00;99.90;;;;;;5106545;28;20056;-45
2023/04/14 01:37:43;;;;;;;10.02;6.22;;;5.00;99.90;;;;;;5112144;28;20114;-47
2023/04/14 01:40:14;;;;;;;10.90;6.15;;;5.00;99.90;;;;;;5088498;28;20027;-45
2023/04/14 01:42:46;;;;;;;11.60;7.68;;;5.00;99.90;;;;;;5111248;28;20050;-45
2023/04/14 01:45:23;;;;;;;10.48;7.28;;;5.00;99.90;;;;;;5136045;27;20043;-46
2023/04/14 01:47:51;;;;;;;10.38;6.32;;;5.00;99.90;;;;;;5100158;28;20073;-46
2023/04/14 01:50:18;;;;;;;9.98;6.72;;;5.10;99.90;;;;;;5110326;28;20251;-45
2023/04/14 01:52:50;;;;;;;9.90;6.68;;;5.10;99.90;;;;;;5120584;27;20422;-45
2023/04/14 01:55:18;;;;;;;9.38;6.10;;;5.10;99.90;;;;;;5131539;27;20079;-45
2023/04/14 01:57:47;;;;;;;8.93;5.82;;;5.00;99.90;;;;;;5125007;27;20066;-47
2023/04/14 02:00:15;;;;;;;10.60;6.50;;;4.90;99.90;;;;;;5109106;28;20158;-44
2023/04/14 02:02:42;;;;;;;8.43;5.95;;;4.80;99.90;;;;;;5112702;27;20032;-44
2023/04/14 02:05:09;;;;;;;9.68;5.38;;;4.80;99.90;;;;;;5110236;28;20032;-45
2023/04/14 02:07:35;;;;;;;10.88;6.03;;;4.70;99.90;;;;;;5110375;28;20070;-44
2023/04/14 02:10:04;;;;;;;8.65;5.80;;;4.80;99.90;;;;;;5113790;27;20381;-44
2023/04/14 02:12:30;;;;;;;10.55;5.55;;;4.70;99.90;;;;;;5112007;27;20489;-44
2023/04/14 02:14:58;;;;;;;9.60;6.25;;;4.60;99.90;;;;;;5117356;27;20076;-45
2023/04/14 02:17:24;;;;;;;11.30;6.10;;;4.60;99.90;;;;;;5110048;28;20030;-45
2023/04/14 02:19:52;;;;;;;7.40;5.70;;;4.70;99.90;;;;;;5116010;27;20501;-44
2023/04/14 02:22:18;;;;;;;12.68;5.60;;;4.70;99.90;;;;;;5122310;27;20023;-44
2023/04/14 02:24:45;;;;;;;8.35;6.38;;;4.60;99.90;;;;;;5124167;27;20038;-45
2023/04/14 02:27:17;;;;;;;8.27;5.72;;;4.60;99.90;;;;;;5124996;27;20020;-47
2023/04/14 02:29:49;;;;;;;10.95;6.28;;;4.60;99.90;;;;;;5113201;27;20031;-46
2023/04/14 02:32:21;;;;;;;8.35;5.65;;;4.60;99.90;;;;;;5117543;27;20594;-44
2023/04/14 02:34:54;;;;;;;8.43;6.13;;;4.60;99.90;;;;;;5127286;27;20484;-44
2023/04/14 02:37:26;;;;;;;10.30;7.28;;;4.60;99.90;;;;;;5109655;28;20024;-43
2023/04/14 02:40:14;;;;;;;13.38;7.40;;;4.70;99.90;;;;;;5117009;27;20543;-46
2023/04/14 02:42:44;;;;;;;12.32;6.95;;;4.70;99.90;;;;;;5127790;27;20030;-45
2023/04/14 02:45:16;;;;;;;;;;;4.70;99.90;;;;;;5082277;27;20023;-45
2023/04/14 02:47:46;;;;;;;14.60;8.38;;;4.70;99.90;;;;;;5118969;27;19918;-46
2023/04/14 02:50:14;;;;;;;9.93;7.50;;;4.70;99.90;;;;;;5110050;28;20035;-46
2023/04/14 02:52:41;;;;;;;10.27;6.57;;;4.70;99.90;;;;;;5107996;27;20030;-46
2023/04/14 02:55:09;;;;;;;15.60;9.68;;;4.70;99.90;;;;;;5123913;27;20465;-46
2023/04/14 02:57:36;;;;;;;12.48;7.60;;;4.70;99.90;;;;;;5074782;28;20028;-45
2023/04/14 03:00:02;;;;;;;13.75;8.27;;;4.70;99.90;;;;;;5121435;27;20020;-46
2023/04/14 03:02:28;;;;;;;11.10;7.28;;;4.80;99.90;;;;;;5117612;27;20186;-46
2023/04/14 03:04:54;;;;;;;9.80;7.22;;;4.80;99.90;;;;;;5091038;28;20122;-46
2023/04/14 03:07:20;;;;;;;13.45;8.00;;;4.80;99.90;;;;;;5124775;27;20479;-47
2023/04/14 03:09:49;;;;;;;11.88;7.88;;;4.80;99.90;;;;;;5109248;28;20016;-46
2023/04/14 03:12:16;;;;;;;10.88;7.60;;;4.80;99.90;;;;;;5109285;28;20019;-46
2023/04/14 03:14:43;;;;;;;12.80;8.77;;;4.80;99.90;;;;;;5109574;28;20032;-46
2023/04/14 03:17:10;;;;;;;10.82;7.38;;;4.80;99.90;;;;;;5117709;27;20055;-46
2023/04/14 03:19:39;;;;;;;12.30;8.27;;;4.80;99.90;;;;;;5117665;27;20145;-45
2023/04/14 03:22:06;;;;;;;14.77;8.02;;;4.80;99.90;;;;;;5115112;27;20055;-45
2023/04/14 03:24:33;;;;;;;11.32;8.05;;;4.70;99.90;;;;;;5127902;27;20046;-45
2023/04/14 03:27:06;;;;;;;12.60;8.25;;;4.80;99.90;;;;;;5090979;28;20019;-46
2023/04/14 03:29:36;;;;;;;10.52;7.93;;;4.70;99.90;;;;;;5090890;28;20601;-45
2023/04/14 03:32:05;;;;;;;;;;;4.80;99.90;;;;;;5091383;28;20103;-48
2023/04/14 03:34:33;;;;;;;10.90;8.00;;;4.60;99.90;;;;;;5109159;28;19931;-46
2023/04/14 03:36:59;;;;;;;12.57;8.63;;;4.60;99.90;;;;;;5109086;28;20011;-49
2023/04/14 03:39:27;;;;;;;14.35;8.30;;;4.60;99.90;;;;;;5090493;28;20521;-47
2023/04/14 03:41:58;;;;;;;13.18;7.55;;;4.60;99.90;;;;;;5108604;28;20070;-45
2023/04/14 03:44:26;;;;;;;11.40;7.22;;;4.60;99.90;;;;;;5112868;27;20377;-46
2023/04/14 03:46:53;;;;;;;11.32;8.00;;;4.50;99.90;;;;;;5112072;27;20031;-46
2023/04/14 03:49:20;;;;;;;12.80;8.63;;;4.60;99.90;;;;;;5113003;27;20024;-45
2023/04/14 03:51:48;;;;;;;11.05;7.38;;;4.60;99.90;;;;;;5126866;27;20131;-46
2023/04/14 03:54:15;;;;;;;12.60;7.53;;;4.50;99.90;;;;;;5122498;27;20487;-47
2023/04/14 03:56:44;;;;;;;13.40;7.95;;;4.60;99.90;;;;;;5102188;27;20437;-48
2023/04/14 03:59:14;;;;;;;11.95;7.53;;;4.50;99.90;;;;;;5122647;27;20473;-46
2023/04/14 04:01:40;;;;;;;11.80;7.72;;;4.50;99.90;;;;;;5120561;27;20063;-46
2023/04/14 04:04:06;;;;;;;15.90;8.32;;;4.50;99.90;;;;;;5123842;27;20721;-46
2023/04/14 04:06:32;;;;;;;15.52;9.10;;;4.50;99.90;;;;;;5099544;27;20518;-46
2023/04/14 04:09:00;;;;;;;11.25;8.02;;;4.50;99.90;;;;;;5116823;27;20393;-49
2023/04/14 04:11:27;;;;;;;12.23;8.07;;;4.50;99.90;;;;;;5117141;27;20030;-46
2023/04/14 04:13:54;;;;;;;12.85;8.35;;;4.60;99.90;;;;;;5116560;27;20060;-46
2023/04/14 04:16:21;;;;;;;15.80;8.48;;;4.60;99.90;;;;;;5094551;27;20031;-46
2023/04/14 04:18:48;;;;;;;14.93;8.75;;;4.60;99.90;;;;;;5128874;27;20015;-47
2023/04/14 04:21:15;;;;;;;15.35;8.80;;;4.60;99.90;;;;;;5113635;27;20032;-45
2023/04/14 04:23:44;;;;;;;12.02;8.13;;;4.60;99.90;;;;;;5119117;27;20034;-46
2023/04/14 04:26:10;;;;;;;13.63;8.98;;;4.60;99.90;;;;;;5122295;27;20011;-48
2023/04/14 04:28:36;;;;;;;12.07;8.68;;;4.60;99.90;;;;;;5108753;27;20481;-48
2023/04/14 04:31:05;;;;;;;13.18;8.15;;;4.60;99.90;;;;;;5128419;27;20015;-46
2023/04/14 04:33:31;;;;;;;12.55;7.85;;;4.70;99.90;;;;;;5110942;27;20027;-46
2023/04/14 04:35:56;;;;;;;11.63;8.02;;;4.70;99.90;;;;;;5128505;27;20346;-46
2023/04/14 04:38:22;;;;;;;16.73;9.05;;;4.70;99.90;;;;;;5112154;27;20118;-47
2023/04/14 04:40:47;;;;;;;14.43;9.13;;;4.80;99.90;;;;;;5116580;27;20027;-45
2023/04/14 04:43:15;;;;;;;11.82;8.18;;;4.80;99.90;;;;;;5127578;27;20186;-47
2023/04/14 04:46:14;;;;;;;12.52;8.23;;;4.80;99.90;;;;;;5109193;27;20024;-45
2023/04/14 04:48:39;;;;;;;14.85;7.97;;;4.80;99.90;;;;;;5127985;27;20404;-46
2023/04/14 04:51:05;;;;;;;12.88;8.93;;;4.80;99.90;;;;;;5116794;27;20050;-48
2023/04/14 04:53:30;;;;;;;13.35;9.18;;;4.90;99.90;;;;;;5128627;27;20083;-46
2023/04/14 04:55:56;;;;;;;13.30;8.60;;;4.90;99.90;;;;;;5116266;28;20050;-48
2023/04/14 04:58:21;;;;;;;17.42;9.02;;;5.00;99.90;;;;;;5112277;27;20046;-46
2023/04/14 05:00:47;;;;;;;13.35;8.82;;;5.00;99.90;;;;;;5128021;27;20031;-45
2023/04/14 05:03:12;;;;;;;14.45;8.85;;;5.00;99.90;;;;;;5113398;27;20032;-46
2023/04/14 05:05:38;;;;;;;13.38;8.73;;;5.00;99.90;;;;;;5107325;28;20015;-46
2023/04/14 05:08:04;;;;;;;11.90;8.80;;;5.00;99.90;;;;;;5125594;27;20065;-46
2023/04/14 05:10:29;;;;;;;13.35;8.68;;;5.00;99.90;;;;;;5119596;28;20423;-46
2023/04/14 05:12:55;;;;;;;13.70;9.45;;;5.00;99.90;;;;;;5126765;28;20020;-46
2023/04/14 05:15:20;;;;;;;10.70;7.65;;;5.00;99.90;;;;;;5120510;27;20032;-46
2023/04/14 05:17:46;;;;;;;14.73;8.50;;;5.00;99.90;;;;;;5102201;28;20027;-46
2023/04/14 05:20:12;;;;;;;11.80;7.30;;;5.00;99.90;;;;;;5097095;28;20026;-45
2023/04/14 05:22:37;;;;;;;19.63;8.73;;;5.10;99.90;;;;;;5121649;27;20080;-45
2023/04/14 05:25:03;;;;;;;13.70;8.88;;;5.10;99.90;;;;;;5127535;27;20023;-46
2023/04/14 05:27:29;;;;;;;12.73;8.02;;;5.20;99.90;;;;;;5118868;27;20064;-46
2023/04/14 05:29:55;;;;;;;15.63;8.70;;;5.20;99.90;;;;;;5119827;27;20016;-44
2023/04/14 05:32:20;;;;;;;12.82;8.18;;;5.20;99.90;;;;;;5106625;28;20036;-45
2023/04/14 05:34:46;;;;;;;14.30;8.68;;;5.30;99.90;;;;;;5111226;27;20024;-44
2023/04/14 05:37:11;;;;;;;13.40;8.70;;;5.30;99.90;;;;;;5121107;27;20063;-45
2023/04/14 05:39:37;;;;;;;15.20;7.85;;;5.30;99.90;;;;;;5120062;27;20449;-44
2023/04/14 05:42:03;;;;;;;12.65;8.23;;;5.40;99.90;;;;;;5126293;27;20057;-44
2023/04/14 05:44:28;;;;;;;11.65;7.85;;;5.50;99.90;;;;;;5110530;28;20102;-45
2023/04/14 05:46:54;;;;;;;14.05;9.05;;;5.50;99.90;;;;;;5127906;27;20030;-45
2023/04/14 05:49:20;;;;;;;13.48;7.90;;;5.60;99.90;;;;;;5123812;27;20047;-44
2023/04/14 05:51:45;;;;;;;12.27;7.82;;;5.70;99.90;;;;;;5117821;27;20032;-47
2023/04/14 05:54:11;;;;;;;12.55;8.68;;;5.70;99.90;;;;;;5112827;27;20034;-46
2023/04/14 05:56:36;;;;;;;14.07;8.82;;;5.80;99.90;;;;;;5093385;28;20506;-45
2023/04/14 05:59:02;;;;;;;11.77;8.45;;;5.90;99.90;;;;;;5112662;27;20070;-48
2023/04/14 06:01:27;;;;;;;14.68;9.40;;;6.00;99.90;;;;;;5093391;28;20039;-48
2023/04/14 06:03:53;;;;;;;16.48;9.82;;;6.00;99.90;;;;;;5113363;27;20110;-45
2023/04/14 06:06:19;;;;;;;15.18;9.88;;;6.00;99.90;;;;;;5111246;27;20028;-46
2023/04/14 06:08:44;;;;;;;20.25;11.40;;;6.10;99.90;;;;;;5111349;27;20023;-48
2023/04/14 06:11:10;;;;;;;16.17;10.23;;;6.10;99.90;;;;;;5112670;27;20114;-47
2023/04/14 06:13:36;;;;;;;16.33;9.63;;;6.20;99.90;;;;;;5111922;27;20012;-45
2023/04/14 06:16:01;;;;;;;15.45;10.05;;;6.20;99.90;;;;;;5110448;27;20027;-43
2023/04/14 06:18:27;;;;;;;14.45;9.82;;;6.20;99.90;;;;;;5114249;27;20138;-44
2023/04/14 06:20:53;;;;;;;16.00;10.15;;;6.20;99.90;;;;;;5111634;27;20080;-44
2023/04/14 06:23:20;;;;;;;18.15;9.68;;;6.20;99.90;;;;;;5111457;27;20071;-44
2023/04/14 06:25:46;;;;;;;17.83;10.25;;;6.30;99.90;;;;;;5110805;27;20043;-44
2023/04/14 06:28:11;;;;;;;17.00;10.38;;;6.40;99.90;;;;;;5110525;27;20120;-44
2023/04/14 06:30:37;;;;;;;19.60;11.45;;;6.50;99.90;;;;;;5110176;27;20126;-45
2023/04/14 06:33:03;;;;;;;14.70;9.73;;;6.50;99.90;;;;;;5111471;27;20537;-45
2023/04/14 06:35:33;;;;;;;15.27;9.50;;;6.60;99.90;;;;;;5109147;27;20250;-44
2023/04/14 06:38:00;;;;;;;16.30;8.80;;;6.70;99.90;;;;;;5088339;28;20023;-45
2023/04/14 06:40:25;;;;;;;14.27;9.63;;;6.70;99.90;;;;;;5109298;27;20023;-45
2023/04/14 06:42:51;;;;;;;13.57;9.25;;;6.80;99.90;;;;;;5112651;27;20032;-44
2023/04/14 06:45:16;;;;;;;16.08;10.10;;;6.90;99.90;;;;;;5113389;27;20028;-45
2023/04/14 06:47:42;;;;;;;13.45;9.10;;;7.00;99.90;;;;;;5113061;27;20039;-48
2023/04/14 06:50:08;;;;;;;19.75;10.63;;;7.00;99.90;;;;;;5114648;27;20492;-45
2023/04/14 06:52:33;;;;;;;14.52;9.02;;;7.20;99.90;;;;;;5109083;27;20019;-45
2023/04/14 06:54:59;;;;;;;15.50;9.63;;;7.30;99.90;;;;;;5113900;27;20132;-45
2023/04/14 06:57:25;;;;;;;14.63;9.68;;;7.30;99.90;;;;;;5110027;27;20107;-44
2023/04/14 06:59:51;;;;;;;13.63;8.70;;;7.40;99.90;;;;;;5110058;27;20023;-45
2023/04/14 07:02:16;;;;;;;15.18;9.57;;;7.50;99.90;;;;;;5093167;27;20596;-45
2023/04/14 07:04:42;;;;;;;15.23;9.77;;;7.60;99.90;;;;;;5110700;27;20062;-44
2023/04/14 07:07:07;;;;;;;15.63;10.32;;;7.70;99.90;;;;;;5092044;28;20115;-45
2023/04/14 07:09:33;;;;;;;15.02;10.45;;;7.80;99.90;;;;;;5109918;27;20028;-46
2023/04/14 07:12:00;;;;;;;17.08;10.32;;;7.90;99.90;;;;;;5110455;27;20024;-46
2023/04/14 07:14:25;;;;;;;13.23;8.88;;;8.00;99.90;;;;;;5112744;27;20530;-48
2023/04/14 07:16:51;;;;;;;16.85;9.80;;;8.10;99.90;;;;;;5113678;27;20051;-46
2023/04/14 07:19:17;;;;;;;15.68;10.05;;;8.20;99.90;;;;;;5093218;28;20184;-46
2023/04/14 07:21:47;;;;;;;15.43;10.45;;;8.30;99.90;;;;;;5110421;27;20099;-46
2023/04/14 07:24:13;;;;;;;15.03;9.87;;;8.40;99.90;;;;;;5109046;27;20066;-46
2023/04/14 07:26:38;;;;;;;13.57;9.77;;;8.50;99.90;;;;;;5111073;27;20067;-48
2023/04/14 07:29:04;;;;;;;14.40;9.27;;;8.60;99.90;;;;;;5109730;27;20012;-46
2023/04/14 07:31:34;;;;;;;15.68;9.63;;;8.70;99.90;;;;;;5109750;27;20075;-46
2023/04/14 07:34:00;;;;;;;16.08;9.68;;;8.80;99.90;;;;;;5108553;27;20150;-46
2023/04/14 07:36:25;;;;;;;15.30;10.07;;;8.90;99.90;;;;;;5106924;28;20102;-46
2023/04/14 07:38:51;;;;;;;16.33;9.63;;;9.00;99.90;;;;;;5087981;28;20011;-46
2023/04/14 07:41:17;;;;;;;13.18;9.63;;;9.10;99.90;;;;;;5106844;28;20024;-46
2023/04/14 07:43:42;;;;;;;18.05;9.50;;;9.10;99.90;;;;;;5106736;28;20421;-46
2023/04/14 07:46:08;;;;;;;11.32;7.60;;;9.20;99.90;;;;;;5107722;27;20116;-46
2023/04/14 07:48:35;;;;;;;13.23;8.82;;;9.40;99.90;;;;;;5109059;27;20473;-46
2023/04/14 07:51:02;;;;;;;12.57;8.18;;;9.50;99.90;;;;;;5108203;28;20023;-47
2023/04/14 07:53:27;;;;;;;11.98;8.02;;;9.60;99.90;;;;;;5108227;28;20022;-47
2023/04/14 07:55:53;;;;;;;12.05;8.35;;;9.70;99.90;;;;;;5108112;28;20024;-46
2023/04/14 07:58:18;;;;;;;11.52;7.38;;;9.90;99.90;;;;;;5107768;28;20035;-40
2023/04/14 08:00:44;;;;;;;11.95;7.55;;;9.90;99.90;;;;;;5105102;28;20098;-40
2023/04/14 08:03:10;;;;;;;14.38;7.38;;;10.10;99.90;;;;;;5108302;28;20023;-40
2023/04/14 08:05:35;;;;;;;13.57;7.95;;;10.10;99.90;;;;;;5108197;28;20100;-40
2023/04/14 08:08:01;;;;;;;12.50;6.78;;;10.20;99.90;;;;;;5107372;28;20016;-40
2023/04/14 08:10:27;;;;;;;13.20;7.28;;;10.20;99.90;;;;;;5107738;28;20008;-40
2023/04/14 08:12:52;;;;;;;11.23;7.05;;;10.30;99.90;;;;;;5107452;28;20019;-40
2023/04/14 08:15:18;;;;;;;12.23;8.13;;;10.20;99.90;;;;;;5114145;27;20521;-40
2023/04/14 08:17:43;;;;;;;10.80;7.18;;;10.40;99.90;;;;;;5110246;27;20045;-40
2023/04/14 08:20:09;;;;;;;9.52;7.32;;;10.50;99.90;;;;;;5107225;28;20066;-40
2023/04/14 08:22:35;;;;;;;8.68;5.97;;;10.60;99.90;;;;;;5107280;28;20034;-40
2023/04/14 08:25:01;;;;;;;9.40;5.75;;;10.80;99.90;;;;;;5107248;28;20143;-40
2023/04/14 08:27:26;;;;;;;11.40;7.40;;;11.00;99.90;;;;;;5106820;28;20170;-40
2023/04/14 08:29:53;;;;;;;10.25;7.55;;;11.00;99.90;;;;;;5106985;28;20326;-40
2023/04/14 08:32:18;;;;;;;8.10;6.30;;;11.20;99.90;;;;;;5106639;28;20472;-40
2023/04/14 08:34:44;;;;;;;9.52;7.43;;;11.40;99.90;;;;;;5106918;28;20031;-38
2023/04/14 08:37:10;;;;;;;8.80;6.40;;;11.50;99.90;;;;;;5105799;28;20023;-40
2023/04/14 08:39:35;;;;;;;11.38;6.80;;;11.50;99.90;;;;;;5105593;28;20038;-46
2023/04/14 08:42:01;;;;;;;11.48;7.25;;;11.60;99.90;;;;;;5097672;27;20350;-46
2023/04/14 08:44:28;;;;;;;9.68;6.32;;;11.70;99.90;;;;;;5126330;27;20031;-46
2023/04/14 08:46:54;;;;;;;10.23;6.13;;;11.90;99.90;;;;;;5107585;27;20038;-47
2023/04/14 08:49:51;;;;;;;12.30;7.07;;;11.90;99.90;;;;;;5114813;27;20026;-47
2023/04/14 08:52:22;;;;;;;13.63;7.63;;;12.00;99.90;;;;;;5107767;27;20039;-46
2023/04/14 08:54:50;;;;;;;11.57;7.28;;;11.80;99.90;;;;;;5107514;28;20251;-46
2023/04/14 08:57:18;;;;;;;8.02;6.25;;;11.90;99.90;;;;;;5106314;28;20032;-46
2023/04/14 08:59:44;;;;;;;6.78;5.30;;;12.00;99.90;;;;;;5088658;28;20035;-46
2023/04/14 09:02:11;;;;;;;12.13;6.18;;;12.00;99.90;;;;;;5107525;28;20019;-48
2023/04/14 09:04:36;;;;;;;6.38;5.60;;;11.80;99.90;;;;;;5107486;28;20038;-47
2023/04/14 09:07:03;;;;;;;8.23;5.50;;;11.80;99.90;;;;;;5088516;28;20020;-45
2023/04/14 09:09:30;;;;;;;7.22;5.55;;;11.90;99.90;;;;;;5107350;28;20283;-47
2023/04/14 09:11:57;;;;;;;10.45;5.88;;;12.10;99.90;;;;;;5121034;27;20024;-47
2023/04/14 09:14:23;;;;;;;12.52;5.50;;;12.20;99.90;;;;;;5121906;28;20286;-45
2023/04/14 09:16:52;;;;;;;7.68;5.15;;;12.20;99.90;;;;;;5106533;28;20032;-47
2023/04/14 09:19:21;;;;;;;7.32;5.18;;;12.20;99.90;;;;;;5107136;28;20023;-45
2023/04/14 09:21:47;;;;;;;6.80;5.25;;;12.20;99.90;;;;;;5107188;28;20031;-45
2023/04/14 09:24:18;;;;;;;10.77;6.00;;;12.20;99.90;;;;;;5107615;28;20243;-45
2023/04/14 09:26:44;;;;;;;10.52;5.20;;;12.30;99.90;;;;;;5107236;28;20051;-45
2023/04/14 09:29:10;;;;;;;11.50;5.35;;;12.40;99.90;;;;;;5106526;28;20047;-48
2023/04/14 09:31:36;;;;;;;8.43;5.47;;;12.40;99.90;;;;;;5106535;28;20019;-45
2023/04/14 09:34:02;;;;;;;9.23;5.90;;;12.40;99.90;;;;;;5107562;28;20028;-46
2023/04/14 09:36:27;;;;;;;8.82;6.50;;;12.60;99.90;;;;;;5089044;28;20049;-46
2023/04/14 09:38:53;;;;;;;9.93;5.50;;;12.60;99.90;;;;;;5106779;28;20027;-45
2023/04/14 09:41:21;;;;;;;8.45;4.80;;;12.50;99.90;;;;;;5116555;27;20019;-46
2023/04/14 09:43:48;;;;;;;7.55;5.30;;;12.50;99.90;;;;;;5112470;28;20047;-49
2023/04/14 09:46:14;;;;;;;8.18;5.80;;;12.50;99.90;;;;;;5110585;28;20047;-47
2023/04/14 09:48:54;;;;;;;11.50;5.28;;;12.60;99.90;;;;;;5088279;28;20245;-46
2023/04/14 09:51:27;;;;;;;6.40;5.30;;;12.50;99.90;;;;;;5105984;28;20015;-47
2023/04/14 09:53:53;;;;;;;9.43;5.47;;;12.60;99.90;;;;;;5107405;28;20039;-46
2023/04/14 09:56:20;;;;;;;9.25;5.22;;;12.60;99.90;;;;;;5108629;28;20029;-46
2023/04/14 09:58:45;;;;;;;7.93;6.10;;;12.60;99.90;;;;;;5114633;27;20038;-46
2023/04/14 10:01:16;;;;;;;9.02;5.75;;;12.50;99.90;;;;;;5105865;28;20029;-46
2023/04/14 10:03:43;;;;;;;;;;;12.50;99.90;;;;;;5106928;28;20036;-46
2023/04/14 10:06:14;;;;;;;9.20;5.57;;;12.50;99.90;;;;;;5114796;28;20318;-46
2023/04/14 10:08:42;;;;;;;8.80;6.20;;;12.50;99.90;;;;;;5106457;28;20512;-46
2023/04/14 10:11:34;;;;;;;10.07;6.07;;;12.40;99.90;;;;;;5090823;28;20502;-46
2023/04/14 10:14:05;;;;;;;8.60;6.05;;;12.40;99.90;;;;;;5126936;27;20023;-46
2023/04/14 10:16:31;;;;;;;9.57;6.20;;;12.40;99.90;;;;;;5124492;27;20469;-46
2023/04/14 10:18:57;;;;;;;9.07;6.43;;;12.40;99.90;;;;;;5109836;28;20068;-46
2023/04/14 10:21:23;;;;;;;9.35;5.75;;;12.30;99.90;;;;;;5110271;28;20508;-47
2023/04/14 10:23:49;;;;;;;8.77;6.22;;;12.30;99.90;;;;;;5109788;28;20396;-50
2023/04/14 10:26:16;;;;;;;8.98;6.57;;;12.30;99.90;;;;;;5110073;28;20407;-46
2023/04/14 10:28:44;;;;;;;10.40;7.00;;;12.30;99.90;;;;;;5109716;28;20040;-47
2023/04/14 10:31:22;;;;;;;9.05;7.10;;;12.30;99.90;;;;;;5109935;28;20366;-46
2023/04/14 10:33:48;;;;;;;9.15;6.75;;;12.40;99.90;;;;;;5110498;28;20527;-46
2023/04/14 10:36:23;;;;;;;9.52;6.38;;;12.50;99.90;;;;;;5110215;28;20028;-45
2023/04/14 10:38:49;;;;;;;8.20;5.65;;;12.60;99.90;;;;;;5109144;28;20394;-46
2023/04/14 10:41:14;;;;;;;11.05;6.05;;;12.70;99.90;;;;;;5108983;27;20031;-46
2023/04/14 10:43:40;;;;;;;8.77;6.25;;;12.90;99.90;;;;;;5122175;27;20027;-46
2023/04/14 10:46:08;;;;;;;8.38;5.38;;;13.10;99.90;;;;;;5107892;28;20024;-46
2023/04/14 10:48:37;;;;;;;10.13;5.32;;;13.00;99.90;;;;;;5109847;28;20332;-46
2023/04/14 10:51:08;;;;;;;10.10;5.35;;;13.20;99.90;;;;;;5109446;28;20099;-46
2023/04/14 10:53:51;;;;;;;9.02;5.90;;;13.30;99.90;;;;;;5121321;27;20514;-46
2023/04/14 10:56:20;;;;;;;9.63;6.47;;;13.40;99.90;;;;;;5141477;27;20026;-46
2023/04/14 10:58:54;;;;;;;9.48;6.00;;;13.40;99.90;;;;;;5109251;28;20028;-46
2023/04/14 11:01:30;;;;;;;10.57;6.40;;;13.10;99.90;;;;;;5109146;28;20023;-46
2023/04/14 11:03:56;;;;;;;9.07;6.35;;;13.30;99.90;;;;;;5109550;28;20361;-46
2023/04/14 11:06:44;;;;;;;7.05;5.40;;;13.30;99.90;;;;;;5109072;28;20255;-46
2023/04/14 11:09:23;;;;;;;10.50;5.05;;;13.40;99.90;;;;;;5108548;28;20073;-47
2023/04/14 11:11:49;;;;;;;9.13;5.60;;;13.50;99.90;;;;;;5108666;28;20023;-46
2023/04/14 11:14:15;;;;;;;8.02;4.93;;;13.70;99.90;;;;;;5107241;28;20047;-46
2023/04/14 11:16:43;;;;;;;7.25;4.10;;;14.00;99.90;;;;;;5109005;28;20054;-46
2023/04/14 11:19:14;;;;;;;7.93;4.82;;;14.40;99.90;;;;;;5107338;28;20088;-48
2023/04/14 11:21:49;;;;;;;7.30;4.53;;;15.00;99.90;;;;;;5105827;28;20097;-46
2023/04/14 11:24:15;;;;;;;7.97;3.97;;;15.90;99.90;;;;;;5119511;27;20031;-46
2023/04/14 11:26:43;;;;;;;6.85;3.70;;;16.70;99.90;;;;;;5120992;27;20035;-47
2023/04/14 11:29:08;;;;;;;3.78;3.10;;;17.30;99.90;;;;;;5121623;27;20412;-46
2023/04/14 11:31:34;;;;;;;8.27;4.28;;;17.90;98.80;;;;;;5121934;27;20298;-48
2023/04/14 11:34:03;;;;;;;5.55;3.55;;;18.40;98.60;;;;;;5108290;28;20015;-48
2023/04/14 11:36:31;;;;;;;5.70;4.22;;;18.40;96.90;;;;;;5108210;28;20034;-46
2023/04/14 11:38:58;;;;;;;6.03;4.22;;;18.50;95.10;;;;;;5106987;28;20300;-49
2023/04/14 11:41:24;;;;;;;5.80;3.78;;;17.70;96.10;;;;;;5107289;28;20358;-46
2023/04/14 11:43:50;;;;;;;6.50;3.90;;;17.30;96.10;;;;;;5121436;27;20033;-45
2023/04/14 11:46:19;;;;;;;8.45;4.47;;;16.40;98.00;;;;;;5124318;27;20417;-46
2023/04/14 11:48:45;;;;;;;7.80;4.32;;;15.70;99.60;;;;;;5087350;28;20512;-47
2023/04/14 11:51:10;;;;;;;6.05;4.47;;;15.40;99.90;;;;;;5107771;28;20031;-46
2023/04/14 11:53:38;;;;;;;7.22;4.45;;;15.10;99.90;;;;;;5107989;28;20028;-39
2023/04/14 11:56:07;;;;;;;7.10;4.10;;;14.90;99.90;;;;;;5107607;28;20031;-39
2023/04/14 11:58:33;;;;;;;8.48;4.20;;;14.60;99.90;;;;;;5108242;28;20104;-39
2023/04/14 12:00:59;;;;;;;7.93;4.32;;;14.20;99.90;;;;;;5089737;28;20461;-39
2023/04/14 12:03:30;;;;;;;6.65;4.32;;;14.00;99.90;;;;;;5089807;28;20063;-40
2023/04/14 12:06:00;;;;;;;6.80;4.18;;;13.70;99.90;;;;;;5108222;28;20449;-39
2023/04/14 12:08:28;;;;;;;6.80;4.35;;;13.60;99.90;;;;;;5108131;28;20031;-39
2023/04/14 12:10:55;;;;;;;8.00;4.80;;;13.50;99.90;;;;;;5108143;28;20392;-39
2023/04/14 12:13:20;;;;;;;6.55;4.35;;;13.60;99.90;;;;;;5118909;27;20080;-39
2023/04/14 12:15:46;;;;;;;9.52;4.65;;;13.70;99.90;;;;;;5128426;27;20023;-40
2023/04/14 12:18:16;;;;;;;8.90;4.45;;;13.90;99.90;;;;;;5090124;28;20051;-39
2023/04/14 12:20:43;;;;;;;6.10;4.03;;;14.00;99.90;;;;;;5107603;28;20023;-40
2023/04/14 12:23:09;;;;;;;5.95;4.07;;;14.20;99.90;;;;;;5089449;28;20043;-39
2023/04/14 12:25:34;;;;;;;3.55;3.13;;;14.50;99.90;;;;;;5107750;28;20024;-39
2023/04/14 12:28:07;;;;;;;4.93;3.92;;;14.70;99.90;;;;;;5089180;28;20353;-39
2023/04/14 12:30:34;;;;;;;8.35;4.45;;;14.90;99.90;;;;;;5107652;28;20015;-40
2023/04/14 12:33:08;;;;;;;6.57;3.42;;;15.00;99.80;;;;;;5089188;28;20055;-39
2023/04/14 12:35:34;;;;;;;3.97;3.00;;;15.00;99.90;;;;;;5108148;28;20384;-40
2023/04/14 12:38:00;;;;;;;6.63;3.38;;;14.90;99.90;;;;;;5107663;28;20024;-39
2023/04/14 12:40:41;;;;;;;6.55;3.08;;;15.20;99.90;;;;;;5107902;28;20028;-39
2023/04/14 12:43:07;;;;;;;3.58;2.63;;;15.10;98.00;;;;;;5117429;27;20422;-39
2023/04/14 12:45:43;;;;;;;5.97;2.55;;;15.10;98.70;;;;;;5128250;27;20106;-39
2023/04/14 12:48:09;;;;;;;2.90;2.30;;;15.20;99.50;;;;;;5126672;27;20035;-39
2023/04/14 12:50:34;;;;;;;3.58;2.20;;;15.20;99.00;;;;;;5110382;27;20081;-39